Chumstick, Washington
Current Conditions -  °F | °C
As of 6:55 PM on Thursday 27 Nov 2014 (Local Time) from KEAT Reporting Station
Few Clouds Few Clouds  
Wind Chill: 45°   Ceiling: Unl
Heat Index: 49°   Visibility: NA
Dew Point: 39°   Wind: 9mph
Humidity: 69%   Direction: 80°E
Pressure: 29.69"   Gusts: NA
Location:  47.7866°N, 120.856°W
Report Text: KEAT 280255Z AUTO 08008KT FEW070 09/04 A2969 RMK AO2 SLP060 T00940039 58010
Loading
Personal Weather Stations






























Interactive Weather Map New forecast layout! Learn more

10-Day Weather Forecast

Advertisements
Track Severe Weather on mobile